Time;durP1;ratioP1;P1;durP2;ratioP2;P2;SDS_P1;SDS_P2;PMS_P1;PMS_P2;Temp;Humidity;BMP_temperature;BMP_pressure;BME280_temperature;BME280_humidity;BME280_pressure;Samples;Min_cycle;Max_cycle;Signal;HPM_P1;HPM_P2
2022/10/04 00:02:01;;;;;;;2.42;0.50;;;;;;;7.74;91.82;99180.05;1688486;84;21095;-66
2022/10/04 00:04:47;;;;;;;0.55;0.30;;;;;;;7.73;91.86;99171.03;1682463;85;21463;-66
2022/10/04 00:07:23;;;;;;;0.50;0.37;;;;;;;7.71;91.59;99178.58;1681690;85;21075;-66
2022/10/04 00:10:13;;;;;;;0.53;0.30;;;;;;;7.70;91.47;99175.53;1683855;85;21553;-65
2022/10/04 00:12:58;;;;;;;0.30;0.30;;;;;;;7.67;91.54;99177.31;1674139;85;21055;-65
2022/10/04 00:15:38;;;;;;;0.30;0.20;;;;;;;7.64;91.63;99170.39;1677081;85;21147;-65
2022/10/04 00:18:19;;;;;;;0.20;0.20;;;;;;;7.66;91.66;99175.64;1688487;85;21159;-64
2022/10/04 00:20:55;;;;;;;0.40;0.20;;;;;;;7.64;91.59;99165.47;1688232;84;21491;-66
2022/10/04 00:23:39;;;;;;;0.17;0.10;;;;;;;7.64;91.58;99174.48;1688981;85;21075;-65
2022/10/04 00:26:26;;;;;;;3.08;0.40;;;;;;;7.67;91.73;99163.69;1677195;85;21036;-65
2022/10/04 00:28:56;;;;;;;0.75;0.40;;;;;;;7.69;91.92;99168.41;1621421;88;21097;-65
2022/10/04 00:31:27;;;;;;;1.17;0.30;;;;;;;7.74;92.06;99175.43;1632046;86;21008;-69
2022/10/04 00:34:15;;;;;;;1.15;0.30;;;;;;;7.75;91.92;99174.38;1684438;84;21063;-66
2022/10/04 00:36:55;;;;;;;0.85;0.30;;;;;;;7.73;91.68;99172.39;1689402;85;21448;-65
2022/10/04 00:39:33;;;;;;;0.98;0.33;;;;;;;7.72;91.88;99182.98;1680405;84;21059;-68
2022/10/04 00:42:30;;;;;;;1.10;0.40;;;;;;;7.71;92.00;99182.66;1680036;84;21083;-65
2022/10/04 00:45:28;;;;;;;1.02;0.80;;;;;;;7.73;92.12;99177.84;1689560;85;21067;-65
2022/10/04 00:48:17;;;;;;;0.72;0.42;;;;;;;7.72;92.21;99188.43;1689334;84;21071;-66
2022/10/04 00:50:55;;;;;;;1.10;0.50;;;;;;;7.69;92.23;99197.03;1672084;85;21052;-65
2022/10/04 00:53:48;;;;;;;0.35;0.28;;;;;;;7.67;92.51;99192.31;1678806;85;21107;-65
2022/10/04 00:56:47;;;;;;;0.53;0.30;;;;;;;7.66;92.65;99191.16;1690433;83;21028;-66
2022/10/04 00:59:43;;;;;;;0.50;0.30;;;;;;;7.64;92.79;99188.64;1682388;85;21028;-67
2022/10/04 01:02:39;;;;;;;0.62;0.40;;;;;;;7.67;92.87;99195.56;1672546;85;21044;-67
2022/10/04 01:05:19;;;;;;;0.55;0.30;;;;;;;7.68;92.92;99191.78;1682564;85;21036;-66
2022/10/04 01:08:04;;;;;;;0.40;0.30;;;;;;;7.72;93.02;99191.16;1682965;85;21072;-66
2022/10/04 01:10:46;;;;;;;0.35;0.30;;;;;;;7.75;93.08;99200.28;1672618;85;21476;-66
2022/10/04 01:13:21;;;;;;;0.53;0.33;;;;;;;7.76;92.96;99196.50;1681967;85;21064;-65
2022/10/04 01:15:59;;;;;;;0.68;0.42;;;;;;;7.78;92.94;99194.94;1682047;85;21049;-65
2022/10/04 01:18:34;;;;;;;0.53;0.30;;;;;;;7.79;92.99;99192.00;1682318;85;21115;-67
2022/10/04 01:21:20;;;;;;;1.10;0.40;;;;;;;7.81;93.11;99185.00;1679915;85;21048;-66
2022/10/04 01:24:01;;;;;;;0.40;0.40;;;;;;;7.84;93.18;99186.78;1683264;85;21480;-67
2022/10/04 01:26:39;;;;;;;0.62;0.40;;;;;;;7.79;93.10;99192.00;1686975;85;21036;-65
2022/10/04 01:29:18;;;;;;;1.77;0.40;;;;;;;7.79;93.20;99187.91;1682512;85;21447;-64
2022/10/04 01:31:49;;;;;;;0.40;0.40;;;;;;;7.79;93.26;99186.55;1622617;88;21084;-65
2022/10/04 01:34:22;;;;;;;0.45;0.30;;;;;;;7.83;93.33;99185.63;1674186;86;21041;-65
2022/10/04 01:36:54;;;;;;;0.70;0.50;;;;;;;7.83;93.14;99183.75;1631290;87;21166;-66
2022/10/04 01:39:24;;;;;;;0.95;0.30;;;;;;;7.82;93.28;99187.52;1649760;86;21044;-65
2022/10/04 01:42:17;;;;;;;1.05;0.50;;;;;;;7.83;93.41;99196.55;1686381;85;21497;-66
2022/10/04 01:45:11;;;;;;;0.72;0.42;;;;;;;7.83;93.50;99196.02;1679261;85;21032;-66
2022/10/04 01:47:59;;;;;;;0.88;0.40;;;;;;;7.86;93.63;99204.30;1682296;85;21118;-65
2022/10/04 01:50:40;;;;;;;0.42;0.40;;;;;;;7.88;93.76;99204.41;1682468;85;21072;-64
2022/10/04 01:53:23;;;;;;;0.55;0.30;;;;;;;7.87;93.85;99217.73;1683563;85;21513;-64
2022/10/04 01:56:05;;;;;;;0.70;0.50;;;;;;;7.87;93.99;99216.36;1621339;88;21086;-65
2022/10/04 01:58:48;;;;;;;0.60;0.37;;;;;;;7.90;94.14;99211.02;1683802;85;21525;-66
2022/10/04 02:01:29;;;;;;;0.40;0.30;;;;;;;7.91;94.18;99214.05;1678061;85;21040;-63
2022/10/04 02:04:02;;;;;;;1.12;0.47;;;;;;;7.92;94.33;99209.76;1679508;85;21157;-66
2022/10/04 02:06:38;;;;;;;1.45;0.60;;;;;;;7.98;94.51;99216.78;1630883;88;21083;-65
2022/10/04 02:09:20;;;;;;;1.10;0.42;;;;;;;7.98;94.40;99214.89;1689998;85;21040;-64
2022/10/04 02:11:51;;;;;;;0.82;0.45;;;;;;;7.99;94.48;99221.19;1657174;85;21045;-65
2022/10/04 02:14:24;;;;;;;0.98;0.42;;;;;;;8.01;94.52;99213.11;1662350;85;21193;-64
2022/10/04 02:16:53;;;;;;;3.40;0.37;;;;;;;8.03;94.62;99226.02;1688353;85;21807;-65
2022/10/04 02:19:33;;;;;;;1.60;0.30;;;;;;;8.05;94.79;99228.01;1682335;85;21079;-65
2022/10/04 02:22:05;;;;;;;1.42;0.47;;;;;;;8.06;94.76;99228.32;1673986;85;21011;-65
2022/10/04 02:24:38;;;;;;;0.62;0.40;;;;;;;8.07;94.95;99230.52;1659349;85;21079;-64
2022/10/04 02:27:08;;;;;;;2.15;0.50;;;;;;;8.08;95.03;99224.02;1674368;85;21063;-66
2022/10/04 02:29:40;;;;;;;0.30;0.30;;;;;;;8.08;95.01;99234.41;1679544;85;21016;-66
2022/10/04 02:34:59;;;;;;;1.32;0.53;;;;;;;8.07;95.06;99233.25;1683941;85;21119;-64
2022/10/04 02:37:29;;;;;;;0.45;0.45;;;;;;;8.05;95.23;99232.63;1690454;85;21114;-65
2022/10/04 02:40:12;;;;;;;2.05;0.50;;;;;;;8.06;95.42;99241.96;1689567;85;21094;-67
2022/10/04 02:42:49;;;;;;;2.02;0.50;;;;;;;8.09;95.50;99246.16;1683907;85;21028;-66
2022/10/04 02:45:29;;;;;;;0.98;0.50;;;;;;;8.10;95.58;99246.47;1690367;85;21063;-65
2022/10/04 02:48:03;;;;;;;1.30;0.50;;;;;;;8.12;95.70;99244.38;1690485;84;21107;-64
2022/10/04 02:50:38;;;;;;;0.85;0.50;;;;;;;8.14;95.84;99258.12;1683861;85;21056;-65
2022/10/04 02:53:36;;;;;;;0.50;0.40;;;;;;;8.16;95.95;99268.30;1631056;88;21097;-65
2022/10/04 02:56:08;;;;;;;0.75;0.40;;;;;;;8.16;95.91;99268.82;1689334;85;21107;-66
2022/10/04 02:58:38;;;;;;;0.42;0.40;;;;;;;8.17;95.89;99271.86;1684541;84;21048;-65
2022/10/04 03:01:16;;;;;;;2.50;1.32;;;;;;;8.14;95.46;99273.65;1659889;85;21581;-67
2022/10/04 03:03:46;;;;;;;1.15;0.40;;;;;;;8.13;95.33;99281.52;1630415;88;21505;-67
2022/10/04 03:06:18;;;;;;;0.40;0.20;;;;;;;8.09;95.17;99285.19;1679070;85;21095;-65
2022/10/04 03:08:56;;;;;;;0.33;0.20;;;;;;;8.07;94.82;99280.98;1686360;85;21072;-66
2022/10/04 03:11:35;;;;;;;0.50;0.20;;;;;;;8.05;94.65;99285.81;1675024;85;21008;-68
2022/10/04 03:14:19;;;;;;;0.17;0.10;;;;;;;8.03;94.59;99289.27;1630614;88;21089;-67
2022/10/04 03:16:53;;;;;;;0.30;0.23;;;;;;;8.03;94.41;99287.91;1694885;85;21030;-66
2022/10/04 03:19:25;;;;;;;1.60;0.20;;;;;;;7.97;94.26;99288.75;1682043;85;21037;-67
2022/10/04 03:21:59;;;;;;;0.53;0.20;;;;;;;7.94;94.40;99288.11;1694670;83;21029;-68
2022/10/04 03:24:36;;;;;;;0.17;0.13;;;;;;;7.92;94.18;99289.38;1685018;85;21013;-67
2022/10/04 03:27:07;;;;;;;0.45;0.20;;;;;;;7.90;94.18;99299.13;1694237;83;21025;-67
2022/10/04 03:29:39;;;;;;;1.12;0.30;;;;;;;7.89;94.13;99297.44;1694849;85;21033;-67
2022/10/04 03:32:12;;;;;;;0.37;0.23;;;;;;;7.89;94.18;99300.69;1694676;85;21449;-68
2022/10/04 03:34:44;;;;;;;0.37;0.30;;;;;;;7.91;94.17;99302.69;1694643;83;21505;-69
2022/10/04 03:37:16;;;;;;;0.30;0.20;;;;;;;7.89;94.07;99300.69;1669793;85;21072;-67
2022/10/04 03:39:47;;;;;;;0.40;0.30;;;;;;;7.90;93.99;99307.83;1695086;83;21097;-66
2022/10/04 03:42:33;;;;;;;0.40;0.40;;;;;;;7.91;93.96;99314.96;1692042;84;20989;-68
2022/10/04 03:45:14;;;;;;;0.33;0.30;;;;;;;7.91;93.90;99314.96;1694815;85;21116;-66
2022/10/04 03:47:47;;;;;;;0.98;0.35;;;;;;;7.89;93.86;99322.51;1685853;85;21056;-66
2022/10/04 03:50:23;;;;;;;0.50;0.30;;;;;;;7.89;93.61;99321.98;1694759;83;20999;-68
2022/10/04 03:52:58;;;;;;;1.40;0.30;;;;;;;7.89;93.63;99327.44;1694936;85;21022;-67
2022/10/04 03:55:41;;;;;;;0.53;0.20;;;;;;;7.90;93.45;99325.03;1694674;83;21060;-67
2022/10/04 03:58:14;;;;;;;0.40;0.30;;;;;;;7.90;93.36;99327.76;1694880;85;21077;-68
2022/10/04 04:01:01;;;;;;;0.65;0.28;;;;;;;7.90;93.25;99320.94;1694865;83;21025;-68
2022/10/04 04:03:34;;;;;;;0.93;0.30;;;;;;;7.89;93.05;99334.26;1694165;83;21005;-67
2022/10/04 04:06:05;;;;;;;1.95;0.30;;;;;;;7.86;93.02;99329.22;1694817;83;21528;-67
2022/10/04 04:08:36;;;;;;;0.55;0.20;;;;;;;7.83;93.04;99327.43;1694729;83;21048;-66
2022/10/04 04:11:10;;;;;;;0.57;0.20;;;;;;;7.83;92.96;99328.79;1660062;85;21493;-68
2022/10/04 04:14:15;;;;;;;2.08;0.20;;;;;;;7.82;92.93;99332.56;1694493;83;21044;-68
2022/10/04 04:16:45;;;;;;;11.80;10.60;;;;;;;7.83;92.93;99341.91;1666023;84;21052;-67
2022/10/04 04:19:17;;;;;;;0.50;0.50;;;;;;;7.77;92.83;99344.06;1690405;84;21087;-68
2022/10/04 04:21:47;;;;;;;0.20;0.20;;;;;;;7.76;92.97;99348.35;1687848;84;21056;-67
2022/10/04 04:24:27;;;;;;;0.20;0.20;;;;;;;7.73;92.91;99346.88;1681309;85;21075;-66
2022/10/04 04:27:00;;;;;;;0.80;0.25;;;;;;;7.74;92.98;99347.72;1681253;85;21127;-68
2022/10/04 04:29:46;;;;;;;1.10;0.40;;;;;;;7.75;92.95;99357.58;1690182;85;21083;-68
2022/10/04 04:32:28;;;;;;;1.50;0.50;;;;;;;7.75;92.96;99352.97;1684514;85;21067;-66
2022/10/04 04:35:09;;;;;;;1.07;0.40;;;;;;;7.78;92.97;99355.80;1677387;85;21076;-68
2022/10/04 04:37:38;;;;;;;2.25;0.70;;;;;;;7.78;93.06;99360.73;1684066;85;21085;-67
2022/10/04 04:40:23;;;;;;;1.07;0.80;;;;;;;7.79;93.13;99367.03;1682589;85;21079;-66
2022/10/04 04:42:53;;;;;;;1.22;1.02;;;;;;;7.81;93.22;99367.70;1690218;85;21447;-69
2022/10/04 04:45:24;;;;;;;8.75;7.85;;;;;;;7.83;93.20;99372.42;1659296;85;21315;-67
2022/10/04 04:48:00;;;;;;;3.35;2.50;;;;;;;7.85;93.23;99375.27;1621179;88;21051;-67
2022/10/04 04:50:29;;;;;;;3.00;1.80;;;;;;;7.84;93.17;99368.13;1674424;85;21107;-67
2022/10/04 04:53:23;;;;;;;2.72;2.42;;;;;;;7.83;93.18;99376.52;1676960;85;21076;-68
2022/10/04 04:56:00;;;;;;;1.85;1.22;;;;;;;7.85;93.25;99388.05;1685283;85;21118;-67
2022/10/04 04:58:36;;;;;;;3.58;1.35;;;;;;;7.84;93.34;99392.67;1683731;85;21040;-67
2022/10/04 05:01:28;;;;;;;1.50;0.80;;;;;;;7.82;93.32;99398.85;1674245;85;21545;-68
2022/10/04 05:04:05;;;;;;;2.17;0.98;;;;;;;7.80;93.35;99402.30;1686073;84;20992;-67
2022/10/04 05:06:39;;;;;;;3.47;1.20;;;;;;;7.81;93.61;99407.23;1630330;88;21058;-68
2022/10/04 05:09:33;;;;;;;3.72;1.35;;;;;;;7.83;93.75;99409.23;1658706;86;21009;-68
2022/10/04 05:12:14;;;;;;;1.17;1.07;;;;;;;7.86;93.81;99414.28;1687595;85;21100;-68
2022/10/04 05:14:51;;;;;;;1.72;0.93;;;;;;;7.87;93.92;99414.08;1687165;85;21028;-67
2022/10/04 05:17:27;;;;;;;1.50;1.00;;;;;;;7.88;93.98;99419.84;1681417;85;21123;-67
2022/10/04 05:19:58;;;;;;;2.37;0.70;;;;;;;7.94;94.17;99427.73;1684185;85;21452;-66
2022/10/04 05:22:29;;;;;;;1.42;0.60;;;;;;;7.98;94.21;99426.80;1687319;85;21044;-68
2022/10/04 05:25:02;;;;;;;2.08;0.90;;;;;;;8.01;94.13;99430.48;1689677;85;21065;-66
2022/10/04 05:27:44;;;;;;;3.55;0.82;;;;;;;8.03;94.07;99436.58;1690437;85;21004;-68
2022/10/04 05:30:31;;;;;;;4.97;1.22;;;;;;;8.03;94.03;99435.21;1675417;85;21063;-66
2022/10/04 05:33:23;;;;;;;3.67;1.10;;;;;;;8.05;94.13;99439.94;1688901;85;21463;-67
2022/10/04 05:36:11;;;;;;;1.57;0.90;;;;;;;8.07;94.20;99440.05;1679939;85;21114;-69
2022/10/04 05:38:56;;;;;;;1.85;1.20;;;;;;;8.11;94.14;99450.03;1683651;85;21051;-66
2022/10/04 05:41:41;;;;;;;1.42;0.93;;;;;;;8.11;94.14;99446.78;1674625;85;21483;-65
2022/10/04 05:44:27;;;;;;;1.30;0.82;;;;;;;8.13;94.26;99458.33;1683316;85;21428;-67
2022/10/04 05:47:01;;;;;;;2.10;1.17;;;;;;;8.17;94.52;99454.66;1685557;85;21047;-66
2022/10/04 05:49:37;;;;;;;1.92;0.82;;;;;;;8.21;94.63;99459.51;1677797;85;21020;-66
2022/10/04 05:52:13;;;;;;;1.60;1.00;;;;;;;8.26;94.68;99457.00;1682529;85;21024;-66
2022/10/04 05:54:43;;;;;;;2.42;1.00;;;;;;;8.29;94.56;99459.84;1690241;85;21276;-64
2022/10/04 05:57:42;;;;;;;1.10;0.80;;;;;;;8.34;94.71;99457.89;1630842;87;21107;-66
2022/10/04 06:00:21;;;;;;;6.25;1.80;;;;;;;8.39;94.67;99454.86;1682470;85;21556;-64
2022/10/04 06:03:12;;;;;;;1.90;1.10;;;;;;;8.44;94.66;99463.79;1686902;85;21043;-67
2022/10/04 06:06:06;;;;;;;2.42;0.98;;;;;;;8.52;94.88;99468.56;1687388;85;21498;-66
2022/10/04 06:09:20;;;;;;;1.82;1.10;;;;;;;8.62;94.88;99468.69;1665025;85;21071;-65
2022/10/04 06:12:05;;;;;;;6.35;1.27;;;;;;;8.67;94.76;99467.01;1670869;83;21322;-65
2022/10/04 06:14:41;;;;;;;2.87;1.60;;;;;;;8.77;94.80;99479.73;1679898;85;21103;-64
2022/10/04 06:17:34;;;;;;;1.62;1.10;;;;;;;8.85;94.72;99479.52;1663568;85;21088;-64
2022/10/04 06:20:11;;;;;;;1.82;1.32;;;;;;;8.90;94.43;99482.99;1642099;86;21503;-65
2022/10/04 06:22:46;;;;;;;4.00;1.72;;;;;;;8.91;94.18;99488.77;1689552;84;21052;-66
2022/10/04 06:25:29;;;;;;;2.47;1.30;;;;;;;8.97;94.09;99487.09;1642273;87;21067;-65
2022/10/04 06:28:11;;;;;;;3.08;1.12;;;;;;;8.99;93.77;99492.66;1641738;87;21091;-65
2022/10/04 06:30:58;;;;;;;2.77;1.20;;;;;;;9.03;93.57;99491.19;1677657;85;21068;-67
2022/10/04 06:33:45;;;;;;;4.12;1.50;;;;;;;9.07;93.28;99489.72;1641905;87;21048;-68
2022/10/04 06:36:49;;;;;;;3.72;2.00;;;;;;;9.11;92.90;99506.05;1641944;87;21047;-64
2022/10/04 06:39:53;;;;;;;4.75;2.00;;;;;;;9.15;92.66;99511.93;1684392;85;21135;-63
2022/10/04 06:42:51;;;;;;;6.80;2.70;;;;;;;9.15;91.29;99515.50;1679522;84;21476;-64
2022/10/04 06:45:52;;;;;;;9.50;3.67;;;;;;;9.18;90.86;99523.28;1687318;85;21067;-65
2022/10/04 06:49:09;;;;;;;6.87;3.47;;;;;;;9.27;90.64;99539.47;1681006;85;21110;-65
2022/10/04 06:52:12;;;;;;;9.38;4.05;;;;;;;9.31;90.01;99525.70;1674359;85;21108;-65
2022/10/04 06:55:00;;;;;;;12.03;4.67;;;;;;;9.37;89.83;99531.69;1661462;85;21101;-64
2022/10/04 06:57:59;;;;;;;5.15;2.65;;;;;;;9.36;89.20;99530.84;1642200;87;21068;-65
2022/10/04 07:00:29;;;;;;;4.55;2.15;;;;;;;9.38;89.11;99536.94;1641571;87;21047;-65
2022/10/04 07:03:03;;;;;;;4.08;1.72;;;;;;;9.41;89.27;99541.98;1641508;87;21175;-63
2022/10/04 07:05:47;;;;;;;4.47;1.87;;;;;;;9.47;89.34;99541.66;1678129;84;21073;-65
2022/10/04 07:08:32;;;;;;;2.47;1.40;;;;;;;9.53;89.19;99550.39;1672349;85;21051;-64
2022/10/04 07:11:15;;;;;;;3.17;1.80;;;;;;;9.56;89.07;99549.97;1668829;84;21087;-65
2022/10/04 07:14:01;;;;;;;1.75;1.30;;;;;;;9.62;89.18;99551.01;1663118;86;21012;-65
2022/10/04 07:16:53;;;;;;;5.90;1.33;;;;;;;9.67;89.22;99560.26;1641178;85;21503;-64
2022/10/04 07:19:48;;;;;;;2.35;1.80;;;;;;;9.74;88.98;99556.14;1664108;86;21051;-64
2022/10/04 07:22:24;;;;;;;3.92;1.35;;;;;;;9.76;88.78;99560.38;1661299;86;21510;-66
2022/10/04 07:25:10;;;;;;;;;;;;;;;9.76;88.41;99553.55;1664933;86;21456;-64
2022/10/04 07:31:12;;;;;;;4.15;1.67;;;;;;;9.73;88.06;99558.04;1679608;83;21121;-64
2022/10/04 07:33:49;;;;;;;3.42;1.30;;;;;;;9.79;88.26;99563.22;1683344;85;21190;-65
2022/10/04 07:36:24;;;;;;;6.28;1.35;;;;;;;9.81;88.33;99559.74;1688151;84;21740;-64
2022/10/04 07:38:59;;;;;;;2.58;1.77;;;;;;;9.85;88.08;99585.62;1689855;85;21020;-64
2022/10/04 07:41:34;;;;;;;2.15;1.30;;;;;;;9.85;87.69;99593.83;1632131;88;21104;-64
2022/10/04 07:44:20;;;;;;;1.90;1.30;;;;;;;9.85;87.76;99595.20;1688116;83;21111;-66
2022/10/04 07:47:21;;;;;;;2.95;1.70;;;;;;;9.84;87.07;99603.09;1677312;83;21106;-66
2022/10/04 07:49:52;;;;;;;2.85;1.20;;;;;;;9.82;87.42;99600.56;1681223;84;21014;-64
2022/10/04 07:52:47;;;;;;;3.35;1.30;;;;;;;9.85;87.62;99597.41;1666348;84;21063;-66
2022/10/04 07:55:28;;;;;;;1.75;1.30;;;;;;;9.85;87.91;99605.61;1677000;85;21068;-66
2022/10/04 07:58:24;;;;;;;1.85;1.10;;;;;;;9.90;88.00;99613.19;1674061;85;21436;-66
2022/10/04 08:01:19;;;;;;;3.10;1.50;;;;;;;9.91;87.31;99614.86;1690045;83;21057;-66
2022/10/04 08:04:06;;;;;;;2.37;1.17;;;;;;;9.94;87.73;99607.59;1686191;85;21076;-66
2022/10/04 08:07:00;;;;;;;2.15;1.30;;;;;;;9.99;87.82;99621.48;1632618;85;21196;-66
2022/10/04 08:10:05;;;;;;;2.90;1.30;;;;;;;10.01;87.76;99619.91;1690012;85;21320;-67
2022/10/04 08:12:52;;;;;;;3.45;1.20;;;;;;;10.00;87.53;99618.22;1689983;85;21059;-66
2022/10/04 08:15:38;;;;;;;2.10;1.50;;;;;;;10.00;87.73;99620.95;1678902;85;21016;-65
2022/10/04 08:18:51;;;;;;;3.37;1.40;;;;;;;10.06;88.02;99628.31;1681453;84;21127;-67
2022/10/04 08:21:25;;;;;;;3.42;1.37;;;;;;;10.11;88.05;99632.62;1675065;85;21036;-66
2022/10/04 08:24:10;;;;;;;3.70;1.30;;;;;;;10.16;88.47;99628.19;1681528;85;21047;-67
2022/10/04 08:27:13;;;;;;;1.95;1.40;;;;;;;10.16;87.31;99640.50;1688654;84;21032;-66
2022/10/04 08:29:53;;;;;;;2.62;1.40;;;;;;;10.20;87.53;99637.34;1673801;85;21028;-64
2022/10/04 08:32:55;;;;;;;2.47;1.92;;;;;;;10.23;87.50;99650.10;1681266;85;21138;-67
2022/10/04 08:35:38;;;;;;;3.92;1.87;;;;;;;10.27;87.32;99643.14;1623829;88;21094;-65
2022/10/04 08:38:28;;;;;;;2.60;1.60;;;;;;;10.28;86.82;99646.20;1688104;85;21431;-64
2022/10/04 08:41:35;;;;;;;1.92;1.40;;;;;;;10.29;86.67;99659.36;1687762;85;21110;-66
2022/10/04 08:44:45;;;;;;;2.83;1.27;;;;;;;10.26;86.29;99663.89;1682067;85;21071;-65
2022/10/04 08:48:05;;;;;;;5.03;1.45;;;;;;;10.25;85.99;99662.21;1631724;88;21058;-65
2022/10/04 08:50:49;;;;;;;;;;;;;;;10.21;86.04;99674.11;1691268;85;21087;-63
2022/10/04 08:53:45;;;;;;;6.95;1.80;;;;;;;10.18;86.18;99677.25;1680959;85;20163;-65
2022/10/04 08:56:37;;;;;;;2.67;1.50;;;;;;;10.14;85.82;99678.73;1670978;84;21098;-65
2022/10/04 08:59:45;;;;;;;4.03;1.77;;;;;;;10.10;85.82;99686.52;1688380;85;21486;-65
2022/10/04 09:02:36;;;;;;;2.77;1.62;;;;;;;10.07;85.72;99689.69;1632223;88;21443;-65
2022/10/04 09:05:33;;;;;;;3.83;1.65;;;;;;;10.04;85.24;99694.73;1687957;84;21035;-64
2022/10/04 09:08:41;;;;;;;3.20;1.70;;;;;;;10.01;85.58;99706.11;1687876;85;21460;-67
2022/10/04 09:11:42;;;;;;;3.60;1.50;;;;;;;10.00;85.82;99697.58;1632929;86;21047;-65
2022/10/04 09:14:32;;;;;;;4.45;1.60;;;;;;;9.97;85.96;99700.74;1631835;87;21143;-66
2022/10/04 09:17:22;;;;;;;4.72;2.00;;;;;;;9.99;86.19;99713.69;1689148;85;21087;-65
2022/10/04 09:20:09;;;;;;;2.75;1.95;;;;;;;9.98;86.14;99712.00;1682658;85;21023;-65
2022/10/04 09:22:55;;;;;;;5.67;2.17;;;;;;;10.00;86.59;99720.32;1670367;83;21067;-66
2022/10/04 09:25:38;;;;;;;3.40;1.65;;;;;;;10.04;86.66;99724.84;1661612;84;21048;-65
2022/10/04 09:28:23;;;;;;;3.50;1.65;;;;;;;10.08;86.79;99732.95;1709176;83;20992;-65
2022/10/04 09:30:57;;;;;;;2.62;1.70;;;;;;;10.08;86.29;99732.42;1683543;85;21040;-64
2022/10/04 09:33:47;;;;;;;4.83;2.37;;;;;;;10.10;86.57;99744.00;1690250;84;21064;-64
2022/10/04 09:36:51;;;;;;;3.15;1.75;;;;;;;10.16;86.78;99745.05;1646918;85;21082;-64
2022/10/04 09:39:59;;;;;;;4.85;2.83;;;;;;;10.22;86.86;99747.50;1569021;91;21121;-66
2022/10/04 09:42:40;;;;;;;5.12;2.55;;;;;;;10.30;87.32;99751.39;1690167;85;21039;-65
2022/10/04 09:45:33;;;;;;;9.05;3.10;;;;;;;10.34;87.30;99749.39;1653467;86;21074;-66
2022/10/04 09:48:28;;;;;;;5.35;2.42;;;;;;;10.38;87.56;99749.28;1664917;84;21123;-66
2022/10/04 09:51:08;;;;;;;3.75;1.80;;;;;;;10.45;87.72;99765.21;1669853;85;21095;-66
2022/10/04 09:54:27;;;;;;;3.98;2.17;;;;;;;10.55;87.76;99757.08;1693447;83;21043;-66
2022/10/04 09:57:16;;;;;;;4.67;1.87;;;;;;;10.62;87.68;99757.91;1681779;85;21059;-67
2022/10/04 10:00:22;;;;;;;5.65;2.75;;;;;;;10.68;87.39;99753.79;1632032;88;21116;-65
2022/10/04 10:03:07;;;;;;;3.95;2.08;;;;;;;10.75;87.45;99755.14;1666532;84;21475;-64
2022/10/04 10:05:58;;;;;;;3.52;2.02;;;;;;;10.82;86.92;99770.20;1684135;84;21056;-65
2022/10/04 10:09:09;;;;;;;3.55;1.80;;;;;;;10.84;86.18;99766.72;1673473;85;21087;-64
2022/10/04 10:15:22;;;;;;;3.25;2.10;;;;;;;10.77;84.44;99769.47;1690626;84;21015;-66
2022/10/04 10:18:06;;;;;;;5.60;2.10;;;;;;;10.69;84.45;99774.66;1673430;85;21162;-65
2022/10/04 10:20:52;;;;;;;4.25;2.90;;;;;;;10.65;84.95;99775.30;1641461;87;21488;-64
2022/10/04 10:23:45;;;;;;;4.75;2.40;;;;;;;10.65;85.18;99776.66;1674068;85;21052;-65
2022/10/04 10:26:37;;;;;;;5.65;2.30;;;;;;;10.65;85.46;99784.88;1665467;86;21420;-65
2022/10/04 10:29:34;;;;;;;4.67;3.00;;;;;;;10.58;85.61;99790.38;1663777;85;21087;-63
2022/10/04 10:32:21;;;;;;;5.45;2.55;;;;;;;10.50;85.93;99799.34;1668658;86;21095;-66
2022/10/04 10:35:19;;;;;;;6.42;2.35;;;;;;;10.43;86.49;99800.19;1687969;85;21060;-65
2022/10/04 10:38:21;;;;;;;7.37;2.87;;;;;;;10.38;86.73;99801.84;1636415;87;21504;-65
2022/10/04 10:41:04;;;;;;;5.40;2.35;;;;;;;10.35;87.06;99803.63;1675915;85;21072;-66
2022/10/04 10:44:07;;;;;;;5.62;2.80;;;;;;;10.35;87.44;99801.73;1639465;86;21099;-66
2022/10/04 10:47:00;;;;;;;6.75;1.92;;;;;;;10.35;87.64;99798.16;1657623;86;21094;-65
2022/10/04 10:49:58;;;;;;;6.08;2.67;;;;;;;10.30;87.78;99813.00;1666263;86;21055;-65
2022/10/04 10:52:47;;;;;;;6.20;2.20;;;;;;;10.25;88.08;99813.63;1629795;86;21043;-70
2022/10/04 10:55:44;;;;;;;3.37;2.00;;;;;;;10.23;88.55;99813.53;1662214;85;21086;-71
2022/10/04 10:58:39;;;;;;;4.35;2.12;;;;;;;10.22;88.95;99815.95;1659276;86;21159;-70
2022/10/04 11:01:31;;;;;;;3.17;2.08;;;;;;;10.21;89.11;99815.63;1660801;85;21070;-71
2022/10/04 11:04:24;;;;;;;6.58;2.60;;;;;;;10.23;89.25;99808.89;1656698;86;21071;-70
2022/10/04 11:07:38;;;;;;;3.72;2.15;;;;;;;10.30;89.60;99813.00;1656588;85;21114;-69
2022/10/04 11:10:42;;;;;;;5.05;2.22;;;;;;;10.35;89.70;99815.95;1693126;84;21039;-70
2022/10/04 11:13:30;;;;;;;4.33;2.60;;;;;;;10.40;89.70;99812.93;1687371;84;21031;-74
2022/10/04 11:16:46;;;;;;;8.23;3.80;;;;;;;10.47;89.55;99806.08;1633416;87;21019;-68
2022/10/04 11:19:45;;;;;;;4.53;3.00;;;;;;;10.50;89.30;99815.77;1674609;84;21270;-70
2022/10/04 11:22:43;;;;;;;7.87;4.00;;;;;;;10.53;89.26;99814.81;1686589;84;21087;-72
2022/10/04 11:25:33;;;;;;;4.92;2.83;;;;;;;10.58;89.18;99816.92;1692794;83;21064;-71
2022/10/04 11:28:11;;;;;;;5.67;2.50;;;;;;;10.59;88.53;99824.09;1690509;84;21075;-69
2022/10/04 11:31:29;;;;;;;4.05;2.62;;;;;;;10.55;87.79;99826.93;1676838;84;21044;-69
2022/10/04 11:34:23;;;;;;;4.08;2.30;;;;;;;10.50;87.34;99823.45;1679531;85;21079;-70
2022/10/04 11:37:09;;;;;;;4.37;2.22;;;;;;;10.46;87.28;99824.41;1665478;85;21036;-70
2022/10/04 11:39:52;;;;;;;3.77;2.00;;;;;;;10.45;87.22;99830.94;1678662;85;21083;-70
2022/10/04 11:42:48;;;;;;;5.22;1.92;;;;;;;10.45;86.96;99826.83;1689958;85;21954;-69
2022/10/04 11:45:48;;;;;;;3.98;2.72;;;;;;;10.45;86.76;99832.31;1687951;84;21063;-71
2022/10/04 11:48:43;;;;;;;5.15;2.08;;;;;;;10.44;86.53;99837.47;1689966;84;21179;-70
2022/10/04 11:51:47;;;;;;;5.72;2.30;;;;;;;10.48;86.72;99838.73;1677132;85;21033;-69
2022/10/04 11:54:37;;;;;;;3.77;2.25;;;;;;;10.52;86.57;99839.69;1683950;84;21039;-71
2022/10/04 11:57:27;;;;;;;3.65;2.27;;;;;;;10.56;86.81;99835.47;1693914;83;21043;-70
2022/10/04 12:00:19;;;;;;;4.35;2.10;;;;;;;10.60;86.35;99840.31;1632138;88;21115;-69
2022/10/04 12:03:20;;;;;;;4.53;2.72;;;;;;;10.61;86.09;99844.73;1652319;85;21171;-70
2022/10/04 12:06:33;;;;;;;4.45;2.60;;;;;;;10.63;85.75;99841.25;1619319;87;21030;-71
2022/10/04 12:09:27;;;;;;;6.35;2.52;;;;;;;10.67;86.06;99846.63;1596840;88;21150;-70
2022/10/04 12:12:35;;;;;;;5.33;2.37;;;;;;;10.72;86.01;99841.35;1633563;87;21095;-72
2022/10/04 12:15:23;;;;;;;;;;;;;;;10.77;86.01;99842.93;1636096;85;21074;-68
2022/10/04 12:18:33;;;;;;;4.15;2.33;;;;;;;10.82;85.67;99840.08;1636188;86;20509;-71
2022/10/04 12:21:21;;;;;;;3.62;2.15;;;;;;;10.81;85.06;99852.94;1571993;88;21033;-70
2022/10/04 12:24:08;;;;;;;2.55;1.70;;;;;;;10.83;84.78;99852.19;1643611;83;21461;-70
2022/10/04 12:27:24;;;;;;;3.75;2.10;;;;;;;10.85;84.22;99847.87;1698805;84;21061;-73
2022/10/04 12:30:25;;;;;;;4.53;2.20;;;;;;;10.88;83.88;99847.44;1698823;83;21033;-71
2022/10/04 12:33:20;;;;;;;4.67;2.20;;;;;;;10.92;83.74;99841.33;1697826;84;21191;-72
2022/10/04 12:36:25;;;;;;;3.27;2.30;;;;;;;10.96;83.32;99848.06;1693004;84;21026;-71
2022/10/04 12:39:04;;;;;;;3.12;2.00;;;;;;;11.02;83.23;99845.84;1660108;84;21015;-69
2022/10/04 12:42:06;;;;;;;3.95;2.12;;;;;;;11.07;82.90;99855.66;1651357;86;21070;-70
2022/10/04 12:45:07;;;;;;;3.77;2.00;;;;;;;11.10;82.27;99853.86;1686598;83;21035;-68
2022/10/04 12:48:02;;;;;;;7.50;2.42;;;;;;;11.08;80.60;99857.34;1688314;83;21090;-69
2022/10/04 12:50:53;;;;;;;2.80;1.60;;;;;;;11.07;80.46;99861.67;1698851;83;21082;-70
2022/10/04 12:53:33;;;;;;;7.17;2.08;;;;;;;11.04;80.28;99867.02;1698744;84;21099;-72
2022/10/04 12:56:37;;;;;;;5.70;1.98;;;;;;;11.00;80.14;99872.63;1706008;83;21050;-70
2022/10/04 12:59:44;;;;;;;4.92;2.30;;;;;;;10.98;80.39;99866.51;1661545;84;21076;-70
2022/10/04 13:02:44;;;;;;;2.45;1.60;;;;;;;10.95;80.40;99879.27;1690876;84;21103;-67
2022/10/04 13:05:50;;;;;;;3.35;2.25;;;;;;;10.90;80.17;99874.95;1654882;86;21065;-70
2022/10/04 13:09:03;;;;;;;3.58;1.92;;;;;;;10.87;80.62;99891.82;1689293;84;21038;-67
2022/10/04 13:12:05;;;;;;;4.58;2.20;;;;;;;10.86;81.19;99888.77;1694370;84;21082;-68
2022/10/04 13:14:46;;;;;;;4.62;2.37;;;;;;;10.84;81.59;99891.41;1691158;83;21123;-73
2022/10/04 13:17:34;;;;;;;8.53;2.70;;;;;;;10.80;81.91;99898.68;1689795;83;21031;-70
2022/10/04 13:20:33;;;;;;;6.00;2.50;;;;;;;10.79;82.14;99905.74;1680531;84;21130;-72